sensor_id;sensor_type;location;lat;lon;timestamp;temperature;humidity
831;DHT22;397;50.564;7.272;2023-06-26T00:01:12;21.00;99.90
831;DHT22;397;50.564;7.272;2023-06-26T00:03:40;21.00;99.90
831;DHT22;397;50.564;7.272;2023-06-26T00:06:07;21.00;99.90
831;DHT22;397;50.564;7.272;2023-06-26T00:08:35;21.00;99.90
831;DHT22;397;50.564;7.272;2023-06-26T00:11:02;21.10;99.90
831;DHT22;397;50.564;7.272;2023-06-26T00:13:30;21.10;99.90
831;DHT22;397;50.564;7.272;2023-06-26T00:15:57;21.10;99.90
831;DHT22;397;50.564;7.272;2023-06-26T00:18:27;21.10;99.90
831;DHT22;397;50.564;7.272;2023-06-26T00:20:54;21.10;99.90
831;DHT22;397;50.564;7.272;2023-06-26T00:23:22;21.00;99.90
831;DHT22;397;50.564;7.272;2023-06-26T00:25:49;21.00;99.90
831;DHT22;397;50.564;7.272;2023-06-26T00:28:17;21.00;99.90
831;DHT22;397;50.564;7.272;2023-06-26T00:30:44;21.00;99.90
831;DHT22;397;50.564;7.272;2023-06-26T00:33:12;21.00;99.90
831;DHT22;397;50.564;7.272;2023-06-26T00:35:39;21.00;99.90
831;DHT22;397;50.564;7.272;2023-06-26T00:38:07;21.00;99.90
831;DHT22;397;50.564;7.272;2023-06-26T00:40:34;20.90;99.90
831;DHT22;397;50.564;7.272;2023-06-26T00:43:02;20.80;99.90
831;DHT22;397;50.564;7.272;2023-06-26T00:45:29;20.70;99.90
831;DHT22;397;50.564;7.272;2023-06-26T00:47:57;20.60;99.90
831;DHT22;397;50.564;7.272;2023-06-26T00:50:24;20.50;99.90
831;DHT22;397;50.564;7.272;2023-06-26T00:52:53;20.50;99.90
831;DHT22;397;50.564;7.272;2023-06-26T00:55:22;20.60;99.90
831;DHT22;397;50.564;7.272;2023-06-26T00:57:49;20.60;99.90
831;DHT22;397;50.564;7.272;2023-06-26T01:00:17;20.60;99.90
831;DHT22;397;50.564;7.272;2023-06-26T01:02:45;20.60;99.90
831;DHT22;397;50.564;7.272;2023-06-26T01:05:13;20.60;99.90
831;DHT22;397;50.564;7.272;2023-06-26T01:07:43;20.50;99.90
831;DHT22;397;50.564;7.272;2023-06-26T01:10:10;20.50;99.90
831;DHT22;397;50.564;7.272;2023-06-26T01:12:38;20.60;99.90
831;DHT22;397;50.564;7.272;2023-06-26T01:15:06;20.60;99.90
831;DHT22;397;50.564;7.272;2023-06-26T01:17:36;20.40;99.90
831;DHT22;397;50.564;7.272;2023-06-26T01:20:06;20.40;99.90
831;DHT22;397;50.564;7.272;2023-06-26T01:28:20;20.40;99.90
831;DHT22;397;50.564;7.272;2023-06-26T01:30:48;20.40;99.90
831;DHT22;397;50.564;7.272;2023-06-26T01:33:16;20.30;99.90
831;DHT22;397;50.564;7.272;2023-06-26T01:35:44;20.30;99.90
831;DHT22;397;50.564;7.272;2023-06-26T01:38:17;20.20;99.90
831;DHT22;397;50.564;7.272;2023-06-26T01:40:45;20.20;99.90
831;DHT22;397;50.564;7.272;2023-06-26T01:46:11;20.10;99.90
831;DHT22;397;50.564;7.272;2023-06-26T01:48:42;20.00;99.90
831;DHT22;397;50.564;7.272;2023-06-26T01:51:10;19.90;99.90
831;DHT22;397;50.564;7.272;2023-06-26T01:53:41;19.90;99.90
831;DHT22;397;50.564;7.272;2023-06-26T01:56:15;19.90;99.90
831;DHT22;397;50.564;7.272;2023-06-26T01:58:40;19.80;99.90
831;DHT22;397;50.564;7.272;2023-06-26T02:01:09;19.90;99.90
831;DHT22;397;50.564;7.272;2023-06-26T02:03:37;19.80;99.90
831;DHT22;397;50.564;7.272;2023-06-26T02:06:04;19.90;99.90
831;DHT22;397;50.564;7.272;2023-06-26T02:08:32;19.70;99.90
831;DHT22;397;50.564;7.272;2023-06-26T02:10:59;19.70;99.90
831;DHT22;397;50.564;7.272;2023-06-26T02:13:27;19.70;99.90
831;DHT22;397;50.564;7.272;2023-06-26T02:15:54;19.70;99.90
831;DHT22;397;50.564;7.272;2023-06-26T02:18:22;19.60;99.90
831;DHT22;397;50.564;7.272;2023-06-26T02:20:50;19.70;99.90
831;DHT22;397;50.564;7.272;2023-06-26T02:23:18;19.80;99.90
831;DHT22;397;50.564;7.272;2023-06-26T02:25:45;19.80;99.90
831;DHT22;397;50.564;7.272;2023-06-26T02:28:13;19.80;99.90
831;DHT22;397;50.564;7.272;2023-06-26T02:30:40;19.70;99.90
831;DHT22;397;50.564;7.272;2023-06-26T02:33:08;19.60;99.90
831;DHT22;397;50.564;7.272;2023-06-26T02:35:35;19.60;99.90
831;DHT22;397;50.564;7.272;2023-06-26T02:38:03;19.50;99.90
831;DHT22;397;50.564;7.272;2023-06-26T02:40:31;19.50;99.90
831;DHT22;397;50.564;7.272;2023-06-26T02:42:59;19.40;99.90
831;DHT22;397;50.564;7.272;2023-06-26T02:45:26;19.40;99.90
831;DHT22;397;50.564;7.272;2023-06-26T02:47:53;19.50;99.90
831;DHT22;397;50.564;7.272;2023-06-26T02:50:21;19.40;99.90
831;DHT22;397;50.564;7.272;2023-06-26T02:52:48;19.40;99.90
831;DHT22;397;50.564;7.272;2023-06-26T02:55:18;19.20;99.90
831;DHT22;397;50.564;7.272;2023-06-26T02:57:47;19.40;99.90
831;DHT22;397;50.564;7.272;2023-06-26T03:00:15;19.40;99.90
831;DHT22;397;50.564;7.272;2023-06-26T03:02:42;19.50;99.90
831;DHT22;397;50.564;7.272;2023-06-26T03:05:10;19.50;99.90
831;DHT22;397;50.564;7.272;2023-06-26T03:07:39;19.40;99.90
831;DHT22;397;50.564;7.272;2023-06-26T03:10:07;19.40;99.90
831;DHT22;397;50.564;7.272;2023-06-26T03:12:35;19.40;99.90
831;DHT22;397;50.564;7.272;2023-06-26T03:15:02;19.30;99.90
831;DHT22;397;50.564;7.272;2023-06-26T03:17:30;19.30;99.90
831;DHT22;397;50.564;7.272;2023-06-26T03:19:57;19.40;99.90
831;DHT22;397;50.564;7.272;2023-06-26T03:22:25;19.40;99.90
831;DHT22;397;50.564;7.272;2023-06-26T03:24:52;19.50;99.90
831;DHT22;397;50.564;7.272;2023-06-26T03:27:22;19.50;99.90
831;DHT22;397;50.564;7.272;2023-06-26T03:29:49;19.60;99.90
831;DHT22;397;50.564;7.272;2023-06-26T03:32:16;19.60;99.90
831;DHT22;397;50.564;7.272;2023-06-26T03:34:44;19.50;99.90
831;DHT22;397;50.564;7.272;2023-06-26T03:37:12;19.50;99.90
831;DHT22;397;50.564;7.272;2023-06-26T03:39:40;19.40;99.90
831;DHT22;397;50.564;7.272;2023-06-26T03:42:07;19.30;99.90
831;DHT22;397;50.564;7.272;2023-06-26T03:44:35;19.30;99.90
831;DHT22;397;50.564;7.272;2023-06-26T03:47:02;19.20;99.90
831;DHT22;397;50.564;7.272;2023-06-26T03:49:30;19.20;99.90
831;DHT22;397;50.564;7.272;2023-06-26T03:51:57;19.40;99.90
831;DHT22;397;50.564;7.272;2023-06-26T03:54:25;19.40;99.90
831;DHT22;397;50.564;7.272;2023-06-26T03:56:52;19.60;99.90
831;DHT22;397;50.564;7.272;2023-06-26T03:59:20;19.80;99.90
831;DHT22;397;50.564;7.272;2023-06-26T04:01:47;19.80;99.90
831;DHT22;397;50.564;7.272;2023-06-26T04:04:15;20.20;99.90
831;DHT22;397;50.564;7.272;2023-06-26T04:06:42;21.00;99.90
831;DHT22;397;50.564;7.272;2023-06-26T04:09:10;21.60;99.90
831;DHT22;397;50.564;7.272;2023-06-26T04:11:37;22.10;99.90
831;DHT22;397;50.564;7.272;2023-06-26T04:14:05;22.70;99.90
831;DHT22;397;50.564;7.272;2023-06-26T04:16:32;22.70;99.90
831;DHT22;397;50.564;7.272;2023-06-26T04:19:00;22.90;99.90
831;DHT22;397;50.564;7.272;2023-06-26T04:21:28;23.40;99.90
831;DHT22;397;50.564;7.272;2023-06-26T04:23:56;23.40;99.90
831;DHT22;397;50.564;7.272;2023-06-26T04:26:24;23.40;99.90
831;DHT22;397;50.564;7.272;2023-06-26T04:28:51;23.60;99.90
831;DHT22;397;50.564;7.272;2023-06-26T04:31:19;23.80;99.90
831;DHT22;397;50.564;7.272;2023-06-26T04:33:47;24.20;99.90
831;DHT22;397;50.564;7.272;2023-06-26T04:36:16;24.20;99.90
831;DHT22;397;50.564;7.272;2023-06-26T04:38:44;24.90;99.90
831;DHT22;397;50.564;7.272;2023-06-26T04:41:12;25.10;99.90
831;DHT22;397;50.564;7.272;2023-06-26T04:43:39;24.70;99.90
831;DHT22;397;50.564;7.272;2023-06-26T04:46:07;24.90;99.90
831;DHT22;397;50.564;7.272;2023-06-26T04:48:34;24.90;99.90
831;DHT22;397;50.564;7.272;2023-06-26T04:51:02;24.20;99.90
831;DHT22;397;50.564;7.272;2023-06-26T04:53:29;23.80;99.90
831;DHT22;397;50.564;7.272;2023-06-26T04:55:57;23.10;99.90
831;DHT22;397;50.564;7.272;2023-06-26T04:58:24;23.70;99.90
831;DHT22;397;50.564;7.272;2023-06-26T05:00:52;24.90;99.90
831;DHT22;397;50.564;7.272;2023-06-26T05:03:19;24.70;99.90
831;DHT22;397;50.564;7.272;2023-06-26T05:05:48;24.40;99.90
831;DHT22;397;50.564;7.272;2023-06-26T05:08:24;24.40;99.90
831;DHT22;397;50.564;7.272;2023-06-26T05:10:53;25.20;99.90
831;DHT22;397;50.564;7.272;2023-06-26T05:13:22;25.40;99.90
831;DHT22;397;50.564;7.272;2023-06-26T05:15:49;25.30;99.90
831;DHT22;397;50.564;7.272;2023-06-26T05:18:17;26.00;99.90
831;DHT22;397;50.564;7.272;2023-06-26T05:20:45;25.40;99.90
831;DHT22;397;50.564;7.272;2023-06-26T05:23:13;24.70;99.90
831;DHT22;397;50.564;7.272;2023-06-26T05:25:41;25.10;99.90
831;DHT22;397;50.564;7.272;2023-06-26T05:28:09;24.70;99.90
831;DHT22;397;50.564;7.272;2023-06-26T05:30:38;24.40;99.90
831;DHT22;397;50.564;7.272;2023-06-26T05:33:06;24.10;99.90
831;DHT22;397;50.564;7.272;2023-06-26T05:35:36;24.50;99.90
831;DHT22;397;50.564;7.272;2023-06-26T05:38:04;24.00;99.90
831;DHT22;397;50.564;7.272;2023-06-26T05:40:32;23.10;99.90
831;DHT22;397;50.564;7.272;2023-06-26T05:43:01;23.30;99.90
831;DHT22;397;50.564;7.272;2023-06-26T05:45:29;23.50;99.90
831;DHT22;397;50.564;7.272;2023-06-26T05:47:56;23.60;99.90
831;DHT22;397;50.564;7.272;2023-06-26T05:50:24;23.60;99.90
831;DHT22;397;50.564;7.272;2023-06-26T05:52:52;24.10;99.90
831;DHT22;397;50.564;7.272;2023-06-26T05:55:21;24.10;99.90
831;DHT22;397;50.564;7.272;2023-06-26T05:57:50;24.80;99.90
831;DHT22;397;50.564;7.272;2023-06-26T06:00:18;25.00;99.90
831;DHT22;397;50.564;7.272;2023-06-26T06:02:46;25.50;99.90
831;DHT22;397;50.564;7.272;2023-06-26T06:05:14;26.00;99.90
831;DHT22;397;50.564;7.272;2023-06-26T06:07:41;24.80;99.90
831;DHT22;397;50.564;7.272;2023-06-26T06:10:09;24.10;99.90
831;DHT22;397;50.564;7.272;2023-06-26T06:12:37;23.80;99.90
831;DHT22;397;50.564;7.272;2023-06-26T06:15:06;23.30;99.90
831;DHT22;397;50.564;7.272;2023-06-26T06:17:33;23.10;99.90
831;DHT22;397;50.564;7.272;2023-06-26T06:20:01;23.30;99.90
831;DHT22;397;50.564;7.272;2023-06-26T06:22:29;24.10;99.90
831;DHT22;397;50.564;7.272;2023-06-26T06:24:56;25.50;99.90
831;DHT22;397;50.564;7.272;2023-06-26T06:27:24;26.20;99.90
831;DHT22;397;50.564;7.272;2023-06-26T06:29:51;26.00;99.90
831;DHT22;397;50.564;7.272;2023-06-26T06:32:19;25.40;99.90
831;DHT22;397;50.564;7.272;2023-06-26T06:34:46;25.40;99.90
831;DHT22;397;50.564;7.272;2023-06-26T06:37:14;26.30;99.90
831;DHT22;397;50.564;7.272;2023-06-26T06:39:41;26.20;99.90
831;DHT22;397;50.564;7.272;2023-06-26T06:42:09;25.90;99.90
831;DHT22;397;50.564;7.272;2023-06-26T06:44:36;25.80;99.90
831;DHT22;397;50.564;7.272;2023-06-26T06:47:04;26.00;99.90
831;DHT22;397;50.564;7.272;2023-06-26T06:49:31;26.00;99.90
831;DHT22;397;50.564;7.272;2023-06-26T06:51:59;25.90;99.90
831;DHT22;397;50.564;7.272;2023-06-26T06:54:27;25.70;99.90
831;DHT22;397;50.564;7.272;2023-06-26T06:56:55;25.60;99.90
831;DHT22;397;50.564;7.272;2023-06-26T06:59:22;26.00;99.90
831;DHT22;397;50.564;7.272;2023-06-26T07:01:50;26.30;99.90
831;DHT22;397;50.564;7.272;2023-06-26T07:04:17;26.50;99.90
831;DHT22;397;50.564;7.272;2023-06-26T07:06:44;27.00;99.90
831;DHT22;397;50.564;7.272;2023-06-26T07:09:12;27.10;99.90
831;DHT22;397;50.564;7.272;2023-06-26T07:11:41;27.30;99.90
831;DHT22;397;50.564;7.272;2023-06-26T07:14:08;26.50;99.90
831;DHT22;397;50.564;7.272;2023-06-26T07:16:36;26.30;99.90
831;DHT22;397;50.564;7.272;2023-06-26T07:19:03;26.40;99.90
831;DHT22;397;50.564;7.272;2023-06-26T07:21:31;25.90;99.90
831;DHT22;397;50.564;7.272;2023-06-26T07:23:58;25.40;99.90
831;DHT22;397;50.564;7.272;2023-06-26T07:26:26;25.20;99.90
831;DHT22;397;50.564;7.272;2023-06-26T07:28:53;25.10;99.90
831;DHT22;397;50.564;7.272;2023-06-26T07:31:23;25.30;99.90
831;DHT22;397;50.564;7.272;2023-06-26T07:33:50;25.10;99.90
831;DHT22;397;50.564;7.272;2023-06-26T07:36:18;25.30;99.90
831;DHT22;397;50.564;7.272;2023-06-26T07:38:45;25.60;99.90
831;DHT22;397;50.564;7.272;2023-06-26T07:41:12;25.90;99.90
831;DHT22;397;50.564;7.272;2023-06-26T07:43:40;26.20;99.90
831;DHT22;397;50.564;7.272;2023-06-26T07:46:07;26.10;99.90
831;DHT22;397;50.564;7.272;2023-06-26T07:48:35;26.30;99.90
831;DHT22;397;50.564;7.272;2023-06-26T07:51:02;26.30;99.90
831;DHT22;397;50.564;7.272;2023-06-26T07:53:30;26.40;99.90
831;DHT22;397;50.564;7.272;2023-06-26T07:55:57;26.50;99.90
831;DHT22;397;50.564;7.272;2023-06-26T07:58:25;26.70;99.90
831;DHT22;397;50.564;7.272;2023-06-26T08:00:52;26.70;99.90
831;DHT22;397;50.564;7.272;2023-06-26T08:03:20;26.90;99.90
831;DHT22;397;50.564;7.272;2023-06-26T08:05:47;26.80;99.90
831;DHT22;397;50.564;7.272;2023-06-26T08:08:15;26.90;99.90
831;DHT22;397;50.564;7.272;2023-06-26T08:10:43;26.80;99.90
831;DHT22;397;50.564;7.272;2023-06-26T08:13:10;26.80;99.90
831;DHT22;397;50.564;7.272;2023-06-26T08:15:38;27.10;99.90
831;DHT22;397;50.564;7.272;2023-06-26T08:18:05;27.10;99.90
831;DHT22;397;50.564;7.272;2023-06-26T08:20:33;26.70;99.90
831;DHT22;397;50.564;7.272;2023-06-26T08:23:03;26.50;99.90
831;DHT22;397;50.564;7.272;2023-06-26T08:25:31;26.90;99.90
831;DHT22;397;50.564;7.272;2023-06-26T08:27:58;26.70;99.90
831;DHT22;397;50.564;7.272;2023-06-26T08:30:26;26.80;99.90
831;DHT22;397;50.564;7.272;2023-06-26T08:32:55;26.70;99.90
831;DHT22;397;50.564;7.272;2023-06-26T08:35:23;26.50;99.90
831;DHT22;397;50.564;7.272;2023-06-26T08:37:50;26.40;99.90
831;DHT22;397;50.564;7.272;2023-06-26T08:40:18;26.70;99.90
831;DHT22;397;50.564;7.272;2023-06-26T08:42:46;26.80;99.90
831;DHT22;397;50.564;7.272;2023-06-26T08:45:14;26.60;99.90
831;DHT22;397;50.564;7.272;2023-06-26T08:47:42;26.50;99.90
831;DHT22;397;50.564;7.272;2023-06-26T08:50:13;26.30;99.90
831;DHT22;397;50.564;7.272;2023-06-26T08:52:53;26.80;99.90
831;DHT22;397;50.564;7.272;2023-06-26T08:55:23;26.60;99.90
831;DHT22;397;50.564;7.272;2023-06-26T08:57:53;26.40;99.90
831;DHT22;397;50.564;7.272;2023-06-26T09:00:20;26.50;99.90
831;DHT22;397;50.564;7.272;2023-06-26T09:02:48;26.40;99.90
831;DHT22;397;50.564;7.272;2023-06-26T09:05:16;26.40;99.90
831;DHT22;397;50.564;7.272;2023-06-26T09:07:43;26.40;99.90
831;DHT22;397;50.564;7.272;2023-06-26T09:10:11;26.80;99.90
831;DHT22;397;50.564;7.272;2023-06-26T09:12:38;26.90;99.90
831;DHT22;397;50.564;7.272;2023-06-26T09:15:06;27.20;99.90
831;DHT22;397;50.564;7.272;2023-06-26T09:17:38;27.00;99.90
831;DHT22;397;50.564;7.272;2023-06-26T09:20:10;27.30;99.90
831;DHT22;397;50.564;7.272;2023-06-26T09:22:40;27.30;99.90
831;DHT22;397;50.564;7.272;2023-06-26T09:25:09;26.90;99.90
831;DHT22;397;50.564;7.272;2023-06-26T09:27:36;26.70;99.90
831;DHT22;397;50.564;7.272;2023-06-26T09:30:06;26.40;99.90
831;DHT22;397;50.564;7.272;2023-06-26T09:32:37;26.60;99.90
831;DHT22;397;50.564;7.272;2023-06-26T09:35:04;27.10;99.90
831;DHT22;397;50.564;7.272;2023-06-26T09:37:33;27.30;99.90
831;DHT22;397;50.564;7.272;2023-06-26T09:40:01;27.10;99.90
831;DHT22;397;50.564;7.272;2023-06-26T09:42:29;26.70;99.90
831;DHT22;397;50.564;7.272;2023-06-26T09:44:57;26.30;99.90
831;DHT22;397;50.564;7.272;2023-06-26T09:47:24;26.70;99.90
831;DHT22;397;50.564;7.272;2023-06-26T09:49:52;26.90;99.90
831;DHT22;397;50.564;7.272;2023-06-26T09:52:21;27.30;99.90
831;DHT22;397;50.564;7.272;2023-06-26T09:54:49;27.50;99.90
831;DHT22;397;50.564;7.272;2023-06-26T09:57:18;27.30;99.90
831;DHT22;397;50.564;7.272;2023-06-26T09:59:46;27.40;99.90
831;DHT22;397;50.564;7.272;2023-06-26T10:02:13;27.40;99.90
831;DHT22;397;50.564;7.272;2023-06-26T10:04:41;27.20;99.90
831;DHT22;397;50.564;7.272;2023-06-26T10:07:12;27.10;99.50
831;DHT22;397;50.564;7.272;2023-06-26T10:09:42;27.10;99.10
831;DHT22;397;50.564;7.272;2023-06-26T10:12:13;27.40;97.40
831;DHT22;397;50.564;7.272;2023-06-26T10:14:41;27.30;93.70
831;DHT22;397;50.564;7.272;2023-06-26T10:17:11;27.30;95.40
831;DHT22;397;50.564;7.272;2023-06-26T10:19:43;27.10;95.50
831;DHT22;397;50.564;7.272;2023-06-26T10:22:18;27.20;94.10
831;DHT22;397;50.564;7.272;2023-06-26T10:24:48;27.10;94.10
831;DHT22;397;50.564;7.272;2023-06-26T10:27:23;27.40;94.50
831;DHT22;397;50.564;7.272;2023-06-26T10:29:55;27.30;91.60
831;DHT22;397;50.564;7.272;2023-06-26T10:32:24;27.40;93.20
831;DHT22;397;50.564;7.272;2023-06-26T10:34:53;27.30;92.50
831;DHT22;397;50.564;7.272;2023-06-26T10:37:42;27.30;93.20
831;DHT22;397;50.564;7.272;2023-06-26T10:39:59;27.40;93.40
831;DHT22;397;50.564;7.272;2023-06-26T10:42:37;27.50;91.70
831;DHT22;397;50.564;7.272;2023-06-26T10:45:15;27.40;91.60
831;DHT22;397;50.564;7.272;2023-06-26T10:47:47;27.40;91.40
831;DHT22;397;50.564;7.272;2023-06-26T10:50:26;27.40;90.90
831;DHT22;397;50.564;7.272;2023-06-26T10:55:55;27.60;88.30
831;DHT22;397;50.564;7.272;2023-06-26T11:01:16;27.40;86.90
831;DHT22;397;50.564;7.272;2023-06-26T11:06:25;27.40;82.30
831;DHT22;397;50.564;7.272;2023-06-26T11:08:54;27.60;83.50
831;DHT22;397;50.564;7.272;2023-06-26T11:14:11;27.60;82.00
831;DHT22;397;50.564;7.272;2023-06-26T11:16:42;27.30;78.90
831;DHT22;397;50.564;7.272;2023-06-26T11:19:13;27.30;78.70
831;DHT22;397;50.564;7.272;2023-06-26T11:21:41;27.00;79.50
831;DHT22;397;50.564;7.272;2023-06-26T11:24:10;26.70;80.80
831;DHT22;397;50.564;7.272;2023-06-26T11:26:39;27.00;78.50
831;DHT22;397;50.564;7.272;2023-06-26T11:29:08;27.00;76.90
831;DHT22;397;50.564;7.272;2023-06-26T11:31:38;27.00;75.90
831;DHT22;397;50.564;7.272;2023-06-26T11:34:07;27.00;73.50
831;DHT22;397;50.564;7.272;2023-06-26T11:36:38;27.20;76.00
831;DHT22;397;50.564;7.272;2023-06-26T11:39:06;27.00;75.40
831;DHT22;397;50.564;7.272;2023-06-26T11:41:35;27.10;76.10
831;DHT22;397;50.564;7.272;2023-06-26T11:44:06;26.90;75.90
831;DHT22;397;50.564;7.272;2023-06-26T11:46:37;27.00;77.10
831;DHT22;397;50.564;7.272;2023-06-26T11:49:06;27.30;75.80
831;DHT22;397;50.564;7.272;2023-06-26T11:51:34;27.20;73.70
831;DHT22;397;50.564;7.272;2023-06-26T11:54:03;27.30;74.60
831;DHT22;397;50.564;7.272;2023-06-26T11:56:31;27.10;72.20
831;DHT22;397;50.564;7.272;2023-06-26T11:59:11;27.00;71.80
831;DHT22;397;50.564;7.272;2023-06-26T12:01:40;27.00;72.30
831;DHT22;397;50.564;7.272;2023-06-26T12:04:09;27.20;73.50
831;DHT22;397;50.564;7.272;2023-06-26T12:06:40;27.10;68.10
831;DHT22;397;50.564;7.272;2023-06-26T12:09:09;26.90;67.50
831;DHT22;397;50.564;7.272;2023-06-26T12:11:39;26.60;65.20
831;DHT22;397;50.564;7.272;2023-06-26T12:14:08;26.70;68.40
831;DHT22;397;50.564;7.272;2023-06-26T12:16:36;26.80;69.40
831;DHT22;397;50.564;7.272;2023-06-26T12:19:08;26.50;68.10
831;DHT22;397;50.564;7.272;2023-06-26T12:24:17;26.90;69.10
831;DHT22;397;50.564;7.272;2023-06-26T12:26:47;26.90;69.40
831;DHT22;397;50.564;7.272;2023-06-26T12:29:16;26.90;66.50
831;DHT22;397;50.564;7.272;2023-06-26T12:31:52;26.90;64.60
831;DHT22;397;50.564;7.272;2023-06-26T12:34:25;27.00;65.40
831;DHT22;397;50.564;7.272;2023-06-26T12:36:50;27.00;65.20
831;DHT22;397;50.564;7.272;2023-06-26T12:39:20;27.10;64.40
831;DHT22;397;50.564;7.272;2023-06-26T12:41:57;27.10;65.30
831;DHT22;397;50.564;7.272;2023-06-26T12:44:26;26.80;64.80
831;DHT22;397;50.564;7.272;2023-06-26T12:46:57;26.90;65.10
831;DHT22;397;50.564;7.272;2023-06-26T12:49:38;26.90;64.40
831;DHT22;397;50.564;7.272;2023-06-26T12:52:08;27.20;65.30
831;DHT22;397;50.564;7.272;2023-06-26T12:54:37;27.20;66.00
831;DHT22;397;50.564;7.272;2023-06-26T12:57:05;27.20;65.80
831;DHT22;397;50.564;7.272;2023-06-26T12:59:34;27.20;66.90
831;DHT22;397;50.564;7.272;2023-06-26T13:02:02;27.20;66.00
831;DHT22;397;50.564;7.272;2023-06-26T13:04:30;27.10;66.80
831;DHT22;397;50.564;7.272;2023-06-26T13:06:58;26.80;67.10
831;DHT22;397;50.564;7.272;2023-06-26T13:09:26;26.60;65.70
831;DHT22;397;50.564;7.272;2023-06-26T13:11:54;26.50;66.40
831;DHT22;397;50.564;7.272;2023-06-26T13:14:21;26.50;65.40
831;DHT22;397;50.564;7.272;2023-06-26T13:16:49;26.70;66.20
831;DHT22;397;50.564;7.272;2023-06-26T13:19:16;26.70;62.10
831;DHT22;397;50.564;7.272;2023-06-26T13:21:44;26.50;62.90
831;DHT22;397;50.564;7.272;2023-06-26T13:24:11;26.60;65.40
831;DHT22;397;50.564;7.272;2023-06-26T13:26:39;26.60;65.00
831;DHT22;397;50.564;7.272;2023-06-26T13:29:07;26.60;64.80
831;DHT22;397;50.564;7.272;2023-06-26T13:31:34;26.40;65.60
831;DHT22;397;50.564;7.272;2023-06-26T13:34:03;26.60;64.90
831;DHT22;397;50.564;7.272;2023-06-26T13:36:32;26.60;64.10
831;DHT22;397;50.564;7.272;2023-06-26T13:39:04;26.60;64.60
831;DHT22;397;50.564;7.272;2023-06-26T13:41:31;26.60;63.10
831;DHT22;397;50.564;7.272;2023-06-26T13:43:59;26.80;60.90
831;DHT22;397;50.564;7.272;2023-06-26T13:46:26;26.50;61.60
831;DHT22;397;50.564;7.272;2023-06-26T13:48:54;26.80;62.30
831;DHT22;397;50.564;7.272;2023-06-26T13:51:21;26.70;61.60
831;DHT22;397;50.564;7.272;2023-06-26T13:53:49;26.60;62.50
831;DHT22;397;50.564;7.272;2023-06-26T13:56:16;26.80;63.90
831;DHT22;397;50.564;7.272;2023-06-26T13:58:44;26.60;63.40
831;DHT22;397;50.564;7.272;2023-06-26T14:01:12;26.70;63.50
831;DHT22;397;50.564;7.272;2023-06-26T14:03:40;26.40;63.70
831;DHT22;397;50.564;7.272;2023-06-26T14:06:08;26.40;64.00
831;DHT22;397;50.564;7.272;2023-06-26T14:08:35;26.30;63.80
831;DHT22;397;50.564;7.272;2023-06-26T14:11:03;26.60;64.70
831;DHT22;397;50.564;7.272;2023-06-26T14:13:30;26.80;63.50
831;DHT22;397;50.564;7.272;2023-06-26T14:15:58;26.40;59.60
831;DHT22;397;50.564;7.272;2023-06-26T14:18:25;26.30;59.50
831;DHT22;397;50.564;7.272;2023-06-26T14:20:54;26.20;59.80
831;DHT22;397;50.564;7.272;2023-06-26T14:23:21;26.20;59.00
831;DHT22;397;50.564;7.272;2023-06-26T14:25:49;26.30;59.30
831;DHT22;397;50.564;7.272;2023-06-26T14:28:16;26.30;59.50
831;DHT22;397;50.564;7.272;2023-06-26T14:30:44;26.30;60.10
831;DHT22;397;50.564;7.272;2023-06-26T14:33:11;26.20;59.40
831;DHT22;397;50.564;7.272;2023-06-26T14:35:39;26.10;59.10
831;DHT22;397;50.564;7.272;2023-06-26T14:38:06;26.10;59.30
831;DHT22;397;50.564;7.272;2023-06-26T14:40:34;26.00;59.10
831;DHT22;397;50.564;7.272;2023-06-26T14:43:01;26.00;61.50
831;DHT22;397;50.564;7.272;2023-06-26T14:45:29;26.10;61.30
831;DHT22;397;50.564;7.272;2023-06-26T14:47:56;26.20;62.70
831;DHT22;397;50.564;7.272;2023-06-26T14:50:24;26.10;62.80
831;DHT22;397;50.564;7.272;2023-06-26T14:52:51;26.00;63.30
831;DHT22;397;50.564;7.272;2023-06-26T14:55:27;25.90;64.30
831;DHT22;397;50.564;7.272;2023-06-26T14:57:55;26.00;64.60
831;DHT22;397;50.564;7.272;2023-06-26T15:00:22;25.60;64.50
831;DHT22;397;50.564;7.272;2023-06-26T15:02:51;25.70;65.60
831;DHT22;397;50.564;7.272;2023-06-26T15:05:20;25.80;65.80
831;DHT22;397;50.564;7.272;2023-06-26T15:07:51;26.00;64.40
831;DHT22;397;50.564;7.272;2023-06-26T15:10:18;25.70;65.30
831;DHT22;397;50.564;7.272;2023-06-26T15:12:48;25.90;65.70
831;DHT22;397;50.564;7.272;2023-06-26T15:15:15;25.80;65.60
831;DHT22;397;50.564;7.272;2023-06-26T15:17:44;25.70;64.40
831;DHT22;397;50.564;7.272;2023-06-26T15:20:11;25.50;63.70
831;DHT22;397;50.564;7.272;2023-06-26T15:22:39;25.60;64.10
831;DHT22;397;50.564;7.272;2023-06-26T15:25:07;25.60;64.20
831;DHT22;397;50.564;7.272;2023-06-26T15:27:35;25.70;64.40
831;DHT22;397;50.564;7.272;2023-06-26T15:30:02;25.60;63.40
831;DHT22;397;50.564;7.272;2023-06-26T15:32:32;25.50;62.60
831;DHT22;397;50.564;7.272;2023-06-26T15:35:00;25.50;62.70
831;DHT22;397;50.564;7.272;2023-06-26T15:37:27;25.60;62.60
831;DHT22;397;50.564;7.272;2023-06-26T15:39:55;25.40;61.00
831;DHT22;397;50.564;7.272;2023-06-26T15:42:27;25.30;61.30
831;DHT22;397;50.564;7.272;2023-06-26T15:44:57;25.40;59.80
831;DHT22;397;50.564;7.272;2023-06-26T15:47:25;25.50;60.30
831;DHT22;397;50.564;7.272;2023-06-26T15:49:52;25.40;58.70
831;DHT22;397;50.564;7.272;2023-06-26T15:52:20;25.50;59.50
831;DHT22;397;50.564;7.272;2023-06-26T15:54:47;25.60;60.20
831;DHT22;397;50.564;7.272;2023-06-26T15:57:15;25.60;61.00
831;DHT22;397;50.564;7.272;2023-06-26T15:59:42;25.70;61.80
831;DHT22;397;50.564;7.272;2023-06-26T16:02:10;25.50;60.20
831;DHT22;397;50.564;7.272;2023-06-26T16:04:37;25.20;58.80
831;DHT22;397;50.564;7.272;2023-06-26T16:07:05;25.10;59.00
831;DHT22;397;50.564;7.272;2023-06-26T16:09:32;25.40;59.10
831;DHT22;397;50.564;7.272;2023-06-26T16:12:00;25.50;60.00
831;DHT22;397;50.564;7.272;2023-06-26T16:14:27;25.40;60.70
831;DHT22;397;50.564;7.272;2023-06-26T16:16:55;25.20;61.70
831;DHT22;397;50.564;7.272;2023-06-26T16:19:22;25.00;60.50
831;DHT22;397;50.564;7.272;2023-06-26T16:21:50;25.10;62.50
831;DHT22;397;50.564;7.272;2023-06-26T16:24:17;24.70;61.70
831;DHT22;397;50.564;7.272;2023-06-26T16:26:45;24.70;62.60
831;DHT22;397;50.564;7.272;2023-06-26T16:29:12;24.90;62.90
831;DHT22;397;50.564;7.272;2023-06-26T16:31:40;25.00;62.50
831;DHT22;397;50.564;7.272;2023-06-26T16:34:07;24.90;62.60
831;DHT22;397;50.564;7.272;2023-06-26T16:36:35;24.80;62.30
831;DHT22;397;50.564;7.272;2023-06-26T16:39:03;24.70;62.50
831;DHT22;397;50.564;7.272;2023-06-26T16:41:30;24.70;62.80
831;DHT22;397;50.564;7.272;2023-06-26T16:43:58;24.70;62.50
831;DHT22;397;50.564;7.272;2023-06-26T16:46:25;24.60;62.30
831;DHT22;397;50.564;7.272;2023-06-26T16:48:54;24.60;62.50
831;DHT22;397;50.564;7.272;2023-06-26T16:51:23;24.50;62.60
831;DHT22;397;50.564;7.272;2023-06-26T16:53:50;24.50;63.40
831;DHT22;397;50.564;7.272;2023-06-26T16:56:18;24.60;63.60
831;DHT22;397;50.564;7.272;2023-06-26T16:58:45;24.60;63.20
831;DHT22;397;50.564;7.272;2023-06-26T17:01:13;24.50;63.60
831;DHT22;397;50.564;7.272;2023-06-26T17:03:40;24.40;65.90